createdAt,value
2023-03-19T00:00:27.091Z,50.877216
2023-03-19T00:01:27.066Z,50.877193
2023-03-19T00:02:27.066Z,50.877205
2023-03-19T00:03:27.063Z,50.877209
2023-03-19T00:04:27.034Z,50.877186
2023-03-19T00:05:27.024Z,50.877216
2023-03-19T00:06:27.055Z,50.877213
2023-03-19T00:07:26.991Z,50.877182
2023-03-19T00:08:27.036Z,50.877201
2023-03-19T00:09:26.996Z,50.877224
2023-03-19T00:10:27.002Z,50.877220
2023-03-19T00:11:26.972Z,50.877224
2023-03-19T00:12:27.057Z,50.877216
2023-03-19T00:13:26.984Z,50.877216
2023-03-19T00:14:26.938Z,50.877216
2023-03-19T00:15:27.009Z,50.877193
2023-03-19T00:16:26.929Z,50.877193
2023-03-19T00:17:26.922Z,50.877197
2023-03-19T00:18:26.902Z,50.877239
2023-03-19T00:19:26.878Z,50.877251
2023-03-19T00:20:26.893Z,50.877243
2023-03-19T00:21:27.914Z,50.877239
2023-03-19T00:22:26.900Z,50.877228
2023-03-19T00:23:26.852Z,50.877213
2023-03-19T00:24:26.849Z,50.877216
2023-03-19T00:25:26.838Z,50.877228
2023-03-19T00:26:26.816Z,50.877186
2023-03-19T00:27:26.829Z,50.877205
2023-03-19T00:28:26.792Z,50.877228
2023-03-19T00:29:26.854Z,50.877213
2023-03-19T00:30:26.817Z,50.877209
2023-03-19T00:31:26.788Z,50.877182
2023-03-19T00:32:26.761Z,50.877197
2023-03-19T00:33:26.755Z,50.877209
2023-03-19T00:34:26.736Z,50.877209
2023-03-19T00:35:26.745Z,50.877224
2023-03-19T00:36:26.723Z,50.877201
2023-03-19T00:37:26.723Z,50.877220
2023-03-19T00:38:26.738Z,50.877209
2023-03-19T00:39:26.782Z,50.877220
2023-03-19T00:40:26.688Z,50.877216
2023-03-19T00:41:26.684Z,50.877216
2023-03-19T00:42:26.676Z,50.877201
2023-03-19T00:43:26.638Z,50.877213
2023-03-19T00:44:26.639Z,50.877197
2023-03-19T00:45:26.672Z,50.877190
2023-03-19T00:46:26.696Z,50.877190
2023-03-19T00:47:26.615Z,50.877216
2023-03-19T00:48:26.579Z,50.877228
2023-03-19T00:49:26.597Z,50.877213
2023-03-19T00:50:26.671Z,50.877216
2023-03-19T00:51:26.589Z,50.877239
2023-03-19T00:52:26.550Z,50.877266
2023-03-19T00:53:26.545Z,50.877262
2023-03-19T00:54:26.558Z,50.877262
2023-03-19T00:55:26.531Z,50.877274
2023-03-19T00:56:26.538Z,50.877266
2023-03-19T00:57:26.508Z,50.877228
2023-03-19T00:58:26.495Z,50.877216
2023-03-19T00:59:26.499Z,50.877220
2023-03-19T01:00:26.491Z,50.877209
2023-03-19T01:01:26.536Z,50.877220
2023-03-19T01:02:26.458Z,50.877216
2023-03-19T01:03:26.459Z,50.877224
2023-03-19T01:04:26.500Z,50.877216
2023-03-19T01:05:26.411Z,50.877216
2023-03-19T01:06:26.423Z,50.877228
2023-03-19T01:07:26.486Z,50.877205
2023-03-19T01:08:26.403Z,50.877209
2023-03-19T01:09:26.390Z,50.877216
2023-03-19T01:10:26.384Z,50.877224
2023-03-19T01:11:26.352Z,50.877205
2023-03-19T01:12:26.345Z,50.877232
2023-03-19T01:13:26.337Z,50.877228
2023-03-19T01:14:26.365Z,50.877213
2023-03-19T01:15:26.313Z,50.877209
2023-03-19T01:16:26.315Z,50.877216
2023-03-19T01:17:26.300Z,50.877232
2023-03-19T01:18:26.283Z,50.877205
2023-03-19T01:19:26.317Z,50.877235
2023-03-19T01:20:26.330Z,50.877224
2023-03-19T01:21:26.266Z,50.877243
2023-03-19T01:22:26.266Z,50.877228
2023-03-19T01:23:26.293Z,50.877220
2023-03-19T01:24:26.261Z,50.877243
2023-03-19T01:25:26.345Z,50.877205
2023-03-19T01:26:26.253Z,50.877228
2023-03-19T01:27:26.210Z,50.877235
2023-03-19T01:28:26.197Z,50.877232
2023-03-19T01:29:26.190Z,50.877224
2023-03-19T01:30:26.182Z,50.877213
2023-03-19T01:31:26.186Z,50.877201
2023-03-19T01:32:26.199Z,50.877216
2023-03-19T01:33:26.150Z,50.877209
2023-03-19T01:34:26.142Z,50.877235
2023-03-19T01:35:26.136Z,50.877258
2023-03-19T01:36:26.109Z,50.877289
2023-03-19T01:37:26.132Z,50.877266
2023-03-19T01:38:26.118Z,50.877323
2023-03-19T01:39:26.097Z,50.877331
2023-03-19T01:40:26.088Z,50.877262
2023-03-19T01:41:27.102Z,50.877224
2023-03-19T01:42:26.066Z,50.877201
2023-03-19T01:43:26.048Z,50.877190
2023-03-19T01:44:26.131Z,50.877068
2023-03-19T01:45:26.032Z,50.877048
2023-03-19T01:46:26.062Z,50.877106
2023-03-19T01:47:26.024Z,50.877228
2023-03-19T01:48:26.064Z,50.877201
2023-03-19T01:49:26.003Z,50.877293
2023-03-19T01:50:58.936Z,50.877598
2023-03-19T01:51:25.979Z,50.877514
2023-03-19T01:52:25.947Z,50.877357
2023-03-19T01:53:25.952Z,50.877335
2023-03-19T01:54:25.957Z,50.877193
2023-03-19T01:55:25.921Z,50.877312
2023-03-19T01:56:25.925Z,50.877380
2023-03-19T01:57:25.920Z,50.877174
2023-03-19T01:58:26.106Z,50.877327
2023-03-19T01:59:25.892Z,50.877186
2023-03-19T02:00:25.897Z,50.877289
2023-03-19T02:01:25.882Z,50.877258
2023-03-19T02:02:25.853Z,50.877117
2023-03-19T02:03:25.900Z,50.877090
2023-03-19T02:04:25.850Z,50.877033
2023-03-19T02:05:25.881Z,50.877075
2023-03-19T02:06:25.809Z,50.877048
2023-03-19T02:07:25.804Z,50.877026
2023-03-19T02:08:25.785Z,50.877007
2023-03-19T02:09:25.802Z,50.877018
2023-03-19T02:10:25.777Z,50.877033
2023-03-19T02:11:25.804Z,50.877022
2023-03-19T02:12:25.741Z,50.877075
2023-03-19T02:13:25.774Z,50.877068
2023-03-19T02:14:25.808Z,50.877174
2023-03-19T02:15:25.887Z,50.877167
2023-03-19T02:16:25.791Z,50.877144
2023-03-19T02:17:25.711Z,50.877136
2023-03-19T02:18:25.773Z,50.877075
2023-03-19T02:19:25.690Z,50.877045
2023-03-19T02:20:25.723Z,50.877087
2023-03-19T02:21:25.697Z,50.877144
2023-03-19T02:22:25.672Z,50.877178
2023-03-19T02:23:25.646Z,50.877155
2023-03-19T02:24:25.642Z,50.877155
2023-03-19T02:25:25.638Z,50.877171
2023-03-19T02:26:25.645Z,50.877262
2023-03-19T02:27:25.617Z,50.877186
2023-03-19T02:28:25.604Z,50.877274
2023-03-19T02:29:25.633Z,50.877354
2023-03-19T02:30:25.586Z,50.877354
2023-03-19T02:31:25.605Z,50.877354
2023-03-19T02:32:25.576Z,50.877354
2023-03-19T02:33:25.552Z,50.877354
2023-03-19T02:34:25.569Z,50.877441
2023-03-19T02:35:25.538Z,50.877289
2023-03-19T02:36:25.517Z,50.877289
2023-03-19T02:37:25.523Z,50.877289
2023-03-19T02:38:25.535Z,50.877289
2023-03-19T02:39:25.498Z,50.877289
2023-03-19T02:40:25.511Z,50.877289
2023-03-19T02:41:25.482Z,50.877144
2023-03-19T02:42:25.505Z,50.877090
2023-03-19T02:43:25.476Z,50.877026
2023-03-19T02:44:25.445Z,50.876945
2023-03-19T02:45:25.464Z,50.876663
2023-03-19T02:46:25.550Z,50.876957
2023-03-19T02:47:25.412Z,50.877102
2023-03-19T02:48:25.501Z,50.877144
2023-03-19T02:49:25.396Z,50.877087
2023-03-19T02:50:25.427Z,50.877239
2023-03-19T02:51:25.377Z,50.877129
2023-03-19T02:52:25.372Z,50.877243
2023-03-19T02:53:25.393Z,50.877144
2023-03-19T02:54:25.347Z,50.877155
2023-03-19T02:55:25.332Z,50.877197
2023-03-19T02:56:25.344Z,50.877113
2023-03-19T02:57:25.319Z,50.877136
2023-03-19T02:58:25.313Z,50.877163
2023-03-19T02:59:25.361Z,50.877155
2023-03-19T03:00:25.288Z,50.877281
2023-03-19T03:01:25.291Z,50.877140
2023-03-19T03:02:25.385Z,50.877106
2023-03-19T03:03:25.262Z,50.877125
2023-03-19T03:04:25.276Z,50.877132
2023-03-19T03:05:25.293Z,50.877121
2023-03-19T03:06:25.239Z,50.877110
2023-03-19T03:07:25.243Z,50.877113
2023-03-19T03:08:25.235Z,50.877113
2023-03-19T03:09:25.236Z,50.877098
2023-03-19T03:10:25.206Z,50.877190
2023-03-19T03:11:25.211Z,50.877190
2023-03-19T03:12:25.188Z,50.877197
2023-03-19T03:13:25.186Z,50.877136
2023-03-19T03:14:25.172Z,50.877251
2023-03-19T03:15:25.167Z,50.877094
2023-03-19T03:16:25.205Z,50.877075
2023-03-19T03:17:25.144Z,50.877098
2023-03-19T03:18:25.160Z,50.877178
2023-03-19T03:19:25.130Z,50.877243
2023-03-19T03:20:25.115Z,50.877228
2023-03-19T03:21:25.100Z,50.877232
2023-03-19T03:22:25.113Z,50.877193
2023-03-19T03:23:25.092Z,50.877216
2023-03-19T03:24:25.086Z,50.877193
2023-03-19T03:25:25.052Z,50.877171
2023-03-19T03:26:25.065Z,50.877132
2023-03-19T03:27:25.068Z,50.877213
2023-03-19T03:28:25.062Z,50.877251
2023-03-19T03:29:25.045Z,50.877258
2023-03-19T03:30:25.018Z,50.877254
2023-03-19T03:31:25.056Z,50.877216
2023-03-19T03:32:24.987Z,50.877235
2023-03-19T03:33:24.986Z,50.877251
2023-03-19T03:34:25.008Z,50.877220
2023-03-19T03:35:25.015Z,50.877213
2023-03-19T03:36:24.965Z,50.877220
2023-03-19T03:37:25.018Z,50.877209
2023-03-19T03:38:24.934Z,50.877197
2023-03-19T03:39:24.939Z,50.877209
2023-03-19T03:40:24.926Z,50.877220
2023-03-19T03:41:24.933Z,50.877205
2023-03-19T03:42:24.903Z,50.877182
2023-03-19T03:43:24.897Z,50.877205
2023-03-19T03:44:25.888Z,50.877197
2023-03-19T03:45:24.858Z,50.877197
2023-03-19T03:46:24.916Z,50.877213
2023-03-19T03:47:24.869Z,50.877209
2023-03-19T03:48:24.887Z,50.877224
2023-03-19T03:49:24.829Z,50.877197
2023-03-19T03:50:24.845Z,50.877186
2023-03-19T03:51:24.825Z,50.877201
2023-03-19T03:52:24.796Z,50.877220
2023-03-19T03:53:24.809Z,50.877193
2023-03-19T03:54:24.789Z,50.877197
2023-03-19T03:55:24.774Z,50.877239
2023-03-19T03:56:24.762Z,50.877209
2023-03-19T03:57:24.777Z,50.877205
2023-03-19T03:58:24.764Z,50.877197
2023-03-19T03:59:24.737Z,50.877224
2023-03-19T04:00:24.762Z,50.877193
2023-03-19T04:01:24.713Z,50.877125
2023-03-19T04:02:24.776Z,50.877136
2023-03-19T04:03:24.793Z,50.877144
2023-03-19T04:04:24.679Z,50.877190
2023-03-19T04:05:24.717Z,50.877216
2023-03-19T04:06:24.666Z,50.877220
2023-03-19T04:07:24.667Z,50.877228
2023-03-19T04:08:24.661Z,50.877228
2023-03-19T04:09:24.630Z,50.877247
2023-03-19T04:10:24.607Z,50.877243
2023-03-19T04:11:24.626Z,50.877239
2023-03-19T04:12:24.588Z,50.877205
2023-03-19T04:13:24.612Z,50.877243
2023-03-19T04:14:24.579Z,50.877239
2023-03-19T04:15:24.631Z,50.877270
2023-03-19T04:16:24.600Z,50.877319
2023-03-19T04:17:24.577Z,50.877129
2023-03-19T04:18:24.579Z,50.877220
2023-03-19T04:19:24.538Z,50.877174
2023-03-19T04:20:24.531Z,50.877136
2023-03-19T04:21:24.517Z,50.877148
2023-03-19T04:22:24.505Z,50.877186
2023-03-19T04:23:24.485Z,50.877209
2023-03-19T04:24:24.577Z,50.877209
2023-03-19T04:25:24.497Z,50.877167
2023-03-19T04:26:24.474Z,50.877083
2023-03-19T04:27:24.457Z,50.877140
2023-03-19T04:28:24.448Z,50.877174
2023-03-19T04:29:24.436Z,50.877190
2023-03-19T04:30:24.459Z,50.877239
2023-03-19T04:31:25.483Z,50.877228
2023-03-19T04:32:24.410Z,50.877243
2023-03-19T04:33:24.407Z,50.877274
2023-03-19T04:34:24.394Z,50.877346
2023-03-19T04:35:24.403Z,50.877304
2023-03-19T04:36:24.398Z,50.877247
2023-03-19T04:37:24.374Z,50.877300
2023-03-19T04:38:24.352Z,50.877304
2023-03-19T04:39:24.402Z,50.877293
2023-03-19T04:40:24.336Z,50.877369
2023-03-19T04:41:24.318Z,50.877346
2023-03-19T04:42:24.313Z,50.877251
2023-03-19T04:43:24.319Z,50.877213
2023-03-19T04:44:24.310Z,50.877251
2023-03-19T04:45:24.362Z,50.877266
2023-03-19T04:46:24.317Z,50.877151
2023-03-19T04:47:24.262Z,50.877251
2023-03-19T04:48:24.255Z,50.877262
2023-03-19T04:49:24.249Z,50.877270
2023-03-19T04:50:24.268Z,50.877312
2023-03-19T04:51:24.213Z,50.877277
2023-03-19T04:52:24.209Z,50.877327
2023-03-19T04:53:24.216Z,50.877338
2023-03-19T04:54:24.216Z,50.877346
2023-03-19T04:55:24.207Z,50.877285
2023-03-19T04:56:24.169Z,50.877254
2023-03-19T04:57:25.194Z,50.877266
2023-03-19T04:58:24.156Z,50.877274
2023-03-19T04:59:24.160Z,50.877254
2023-03-19T05:00:24.133Z,50.877258
2023-03-19T05:01:24.151Z,50.877277
2023-03-19T05:02:24.117Z,50.877281
2023-03-19T05:03:24.101Z,50.877216
2023-03-19T05:04:24.134Z,50.877243
2023-03-19T05:05:24.085Z,50.877277
2023-03-19T05:06:24.068Z,50.877239
2023-03-19T05:07:25.093Z,50.877434
2023-03-19T05:08:24.053Z,50.877365
2023-03-19T05:09:24.066Z,50.877274
2023-03-19T05:10:24.053Z,50.877232
2023-03-19T05:11:24.026Z,50.877266
2023-03-19T05:12:24.038Z,50.877209
2023-03-19T05:13:24.000Z,50.877266
2023-03-19T05:14:23.989Z,50.877232
2023-03-19T05:15:24.995Z,50.877220
2023-03-19T05:16:23.983Z,50.877209
2023-03-19T05:17:23.982Z,50.877285
2023-03-19T05:18:23.974Z,50.877335
2023-03-19T05:19:23.951Z,50.877079
2023-03-19T05:20:23.918Z,50.877209
2023-03-19T05:21:24.932Z,50.877247
2023-03-19T05:22:23.948Z,50.877247
2023-03-19T05:23:23.930Z,50.877193
2023-03-19T05:24:23.908Z,50.877197
2023-03-19T05:25:23.908Z,50.877186
2023-03-19T05:26:23.913Z,50.877190
2023-03-19T05:27:23.883Z,50.877178
2023-03-19T05:28:23.865Z,50.877190
2023-03-19T05:29:23.846Z,50.877190
2023-03-19T05:30:23.852Z,50.877163
2023-03-19T05:31:23.854Z,50.877190
2023-03-19T05:32:23.833Z,50.877224
2023-03-19T05:33:23.808Z,50.877220
2023-03-19T05:34:23.819Z,50.877190
2023-03-19T05:35:23.866Z,50.877110
2023-03-19T05:36:23.768Z,50.877102
2023-03-19T05:37:23.794Z,50.877064
2023-03-19T05:38:23.754Z,50.877022
2023-03-19T05:39:23.779Z,50.877178
2023-03-19T05:40:23.744Z,50.877140
2023-03-19T05:41:23.764Z,50.877201
2023-03-19T05:42:23.730Z,50.877174
2023-03-19T05:43:23.722Z,50.877171
2023-03-19T05:44:23.723Z,50.877132
2023-03-19T05:45:23.700Z,50.877136
2023-03-19T05:46:23.694Z,50.877159
2023-03-19T05:47:23.669Z,50.877121
2023-03-19T05:48:23.673Z,50.877148
2023-03-19T05:49:23.672Z,50.877129
2023-03-19T05:50:23.658Z,50.877098
2023-03-19T05:51:23.634Z,50.877075
2023-03-19T05:52:23.622Z,50.877071
2023-03-19T05:53:23.619Z,50.877155
2023-03-19T05:54:23.642Z,50.877106
2023-03-19T05:55:23.615Z,50.877113
2023-03-19T05:56:23.595Z,50.877167
2023-03-19T05:57:23.576Z,50.877148
2023-03-19T05:58:23.593Z,50.877140
2023-03-19T05:59:23.585Z,50.877163
2023-03-19T06:00:23.548Z,50.877151
2023-03-19T06:01:23.566Z,50.877209
2023-03-19T06:02:23.601Z,50.877216
2023-03-19T06:03:23.640Z,50.877220
2023-03-19T06:04:23.548Z,50.877178
2023-03-19T06:05:23.511Z,50.877144
2023-03-19T06:06:23.490Z,50.877136
2023-03-19T06:07:23.471Z,50.877148
2023-03-19T06:08:23.513Z,50.877178
2023-03-19T06:09:23.462Z,50.877190
2023-03-19T06:10:23.460Z,50.877178
2023-03-19T06:11:23.466Z,50.877178
2023-03-19T06:12:23.435Z,50.877163
2023-03-19T06:13:23.420Z,50.877171
2023-03-19T06:14:23.434Z,50.877190
2023-03-19T06:15:23.389Z,50.877209
2023-03-19T06:16:24.419Z,50.877197
2023-03-19T06:17:23.386Z,50.877190
2023-03-19T06:18:23.376Z,50.877216
2023-03-19T06:19:23.359Z,50.877201
2023-03-19T06:20:23.352Z,50.877201
2023-03-19T06:21:23.330Z,50.877209
2023-03-19T06:22:24.332Z,50.877213
2023-03-19T06:23:23.345Z,50.877193
2023-03-19T06:24:23.391Z,50.877193
2023-03-19T06:25:23.298Z,50.877171
2023-03-19T06:26:23.297Z,50.877205
2023-03-19T06:27:23.313Z,50.877201
2023-03-19T06:28:23.282Z,50.877197
2023-03-19T06:29:23.268Z,50.877182
2023-03-19T06:30:23.290Z,50.877216
2023-03-19T06:31:23.297Z,50.877193
2023-03-19T06:32:23.290Z,50.877232
2023-03-19T06:33:23.236Z,50.877205
2023-03-19T06:34:23.211Z,50.877216
2023-03-19T06:35:23.402Z,50.877209
2023-03-19T06:36:23.206Z,50.877201
2023-03-19T06:37:23.215Z,50.877216
2023-03-19T06:38:23.193Z,50.877174
2023-03-19T06:39:23.188Z,50.877193
2023-03-19T06:40:23.179Z,50.877201
2023-03-19T06:41:23.216Z,50.877190
2023-03-19T06:42:23.250Z,50.877159
2023-03-19T06:43:23.147Z,50.877178
2023-03-19T06:44:23.144Z,50.877197
2023-03-19T06:45:23.106Z,50.877205
2023-03-19T06:46:23.189Z,50.877174
2023-03-19T06:47:23.105Z,50.877182
2023-03-19T06:48:23.103Z,50.877190
2023-03-19T06:49:23.064Z,50.877167
2023-03-19T06:50:23.104Z,50.877174
2023-03-19T06:51:23.042Z,50.877167
2023-03-19T06:52:23.064Z,50.877190
2023-03-19T06:53:23.057Z,50.877205
2023-03-19T06:54:23.020Z,50.877209
2023-03-19T06:55:23.065Z,50.877190
2023-03-19T06:56:22.994Z,50.877209
2023-03-19T06:57:22.995Z,50.877209
2023-03-19T06:58:23.024Z,50.877178
2023-03-19T06:59:22.993Z,50.877197
2023-03-19T07:00:22.974Z,50.877148
2023-03-19T07:01:23.043Z,50.877155
2023-03-19T07:02:22.966Z,50.877186
2023-03-19T07:03:23.007Z,50.877197
2023-03-19T07:04:23.041Z,50.877193
2023-03-19T07:05:22.920Z,50.877190
2023-03-19T07:06:22.907Z,50.877197
2023-03-19T07:07:22.963Z,50.877197
2023-03-19T07:08:22.883Z,50.877186
2023-03-19T07:09:22.884Z,50.877209
2023-03-19T07:10:22.874Z,50.877216
2023-03-19T07:11:22.854Z,50.877213
2023-03-19T07:12:22.905Z,50.877193
2023-03-19T07:13:22.835Z,50.877197
2023-03-19T07:14:22.854Z,50.877193
2023-03-19T07:15:22.835Z,50.877205
2023-03-19T07:16:22.837Z,50.877190
2023-03-19T07:17:22.796Z,50.877148
2023-03-19T07:18:22.840Z,50.877182
2023-03-19T07:19:22.779Z,50.877171
2023-03-19T07:20:22.773Z,50.877197
2023-03-19T07:21:22.764Z,50.877186
2023-03-19T07:22:22.754Z,50.877174
2023-03-19T07:23:23.752Z,50.877201
2023-03-19T07:24:22.732Z,50.877201
2023-03-19T07:25:22.717Z,50.877159
2023-03-19T07:26:22.708Z,50.877178
2023-03-19T07:27:22.726Z,50.877190
2023-03-19T07:28:22.752Z,50.877167
2023-03-19T07:29:22.711Z,50.877163
2023-03-19T07:30:22.665Z,50.877197
2023-03-19T07:31:22.799Z,50.877209
2023-03-19T07:32:22.674Z,50.877174
2023-03-19T07:33:22.746Z,50.877197
2023-03-19T07:34:22.616Z,50.877239
2023-03-19T07:35:23.667Z,50.877197
2023-03-19T07:36:22.628Z,50.877182
2023-03-19T07:37:22.722Z,50.877220
2023-03-19T07:38:23.606Z,50.877239
2023-03-19T07:39:22.605Z,50.877220
2023-03-19T07:40:22.596Z,50.877201
2023-03-19T07:41:22.565Z,50.877190
2023-03-19T07:42:22.549Z,50.877239
2023-03-19T07:43:22.555Z,50.877220
2023-03-19T07:44:22.559Z,50.877213
2023-03-19T07:45:22.556Z,50.877197
2023-03-19T07:46:22.519Z,50.877239
2023-03-19T07:47:28.975Z,50.877243
2023-03-19T07:48:24.514Z,50.877224
2023-03-19T07:49:22.497Z,50.877228
2023-03-19T07:50:22.501Z,50.877251
2023-03-19T07:51:54.383Z,50.877186
2023-03-19T07:52:22.483Z,50.877178
2023-03-19T07:53:22.464Z,50.877167
2023-03-19T07:54:22.483Z,50.877190
2023-03-19T07:55:22.456Z,50.877247
2023-03-19T07:56:22.429Z,50.877129
2023-03-19T07:57:22.445Z,50.877110
2023-03-19T07:58:22.430Z,50.877132
2023-03-19T07:59:22.441Z,50.877182
2023-03-19T08:00:22.453Z,50.877159
2023-03-19T08:01:22.420Z,50.877174
2023-03-19T08:02:23.299Z,50.877220
2023-03-19T08:03:23.407Z,50.877178
2023-03-19T08:04:22.382Z,50.877144
2023-03-19T08:05:22.512Z,50.877182
2023-03-19T08:06:22.390Z,50.877190
2023-03-19T08:07:22.367Z,50.877193
2023-03-19T08:08:22.340Z,50.877190
2023-03-19T08:09:22.330Z,50.877174
2023-03-19T08:10:22.432Z,50.877151
2023-03-19T08:11:22.335Z,50.877140
2023-03-19T08:12:22.356Z,50.877155
2023-03-19T08:13:22.282Z,50.877193
2023-03-19T08:14:22.344Z,50.877174
2023-03-19T08:15:22.244Z,50.877140
2023-03-19T08:16:22.310Z,50.877144
2023-03-19T08:17:22.260Z,50.877136
2023-03-19T08:18:22.250Z,50.877148
2023-03-19T08:19:22.233Z,50.877174
2023-03-19T08:20:22.228Z,50.877171
2023-03-19T08:21:22.246Z,50.877182
2023-03-19T08:22:22.186Z,50.877159
2023-03-19T08:23:22.194Z,50.877182
2023-03-19T08:24:22.242Z,50.877182
2023-03-19T08:25:22.165Z,50.877148
2023-03-19T08:26:22.149Z,50.877163
2023-03-19T08:27:22.178Z,50.877094
2023-03-19T08:28:22.145Z,50.877151
2023-03-19T08:29:22.140Z,50.877167
2023-03-19T08:30:22.119Z,50.877190
2023-03-19T08:31:22.114Z,50.877190
2023-03-19T08:32:22.091Z,50.877193
2023-03-19T08:33:22.077Z,50.877190
2023-03-19T08:34:22.088Z,50.877167
2023-03-19T08:35:22.063Z,50.877174
2023-03-19T08:36:22.080Z,50.877151
2023-03-19T08:37:22.038Z,50.877151
2023-03-19T08:38:22.049Z,50.877151
2023-03-19T08:39:22.054Z,50.877117
2023-03-19T08:40:22.028Z,50.877102
2023-03-19T08:41:22.005Z,50.877110
2023-03-19T08:42:22.150Z,50.877121
2023-03-19T08:43:22.185Z,50.877106
2023-03-19T08:44:22.015Z,50.877110
2023-03-19T08:45:21.972Z,50.877098
2023-03-19T08:46:22.081Z,50.877110
2023-03-19T08:47:21.971Z,50.877125
2023-03-19T08:48:21.946Z,50.877102
2023-03-19T08:49:21.932Z,50.877083
2023-03-19T08:50:21.922Z,50.877071
2023-03-19T08:51:21.957Z,50.877090
2023-03-19T08:52:21.909Z,50.877102
2023-03-19T08:53:21.883Z,50.877113
2023-03-19T08:54:23.056Z,50.877113
2023-03-19T08:55:22.880Z,50.877106
2023-03-19T08:56:21.852Z,50.877129
2023-03-19T08:57:21.838Z,50.877106
2023-03-19T08:58:21.902Z,50.877083
2023-03-19T08:59:21.831Z,50.877060
2023-03-19T09:00:21.816Z,50.877094
2023-03-19T09:01:21.862Z,50.877106
2023-03-19T09:02:21.808Z,50.877113
2023-03-19T09:03:21.825Z,50.877098
2023-03-19T09:04:21.801Z,50.877102
2023-03-19T09:05:21.767Z,50.877102
2023-03-19T09:06:21.767Z,50.877129
2023-03-19T09:07:21.738Z,50.877071
2023-03-19T09:08:21.733Z,50.877052
2023-03-19T09:09:21.776Z,50.877007
2023-03-19T09:10:21.758Z,50.877018
2023-03-19T09:11:22.772Z,50.877026
2023-03-19T09:12:21.698Z,50.877125
2023-03-19T09:13:21.718Z,50.877140
2023-03-19T09:14:21.754Z,50.877151
2023-03-19T09:15:21.678Z,50.877140
2023-03-19T09:16:21.806Z,50.877148
2023-03-19T09:17:21.640Z,50.877136
2023-03-19T09:18:21.686Z,50.877159
2023-03-19T09:19:21.652Z,50.877159
2023-03-19T09:20:21.657Z,50.877155
2023-03-19T09:21:21.638Z,50.877148
2023-03-19T09:22:21.600Z,50.877178
2023-03-19T09:23:21.604Z,50.877167
2023-03-19T09:24:21.574Z,50.877197
2023-03-19T09:25:21.580Z,50.877193
2023-03-19T09:26:21.591Z,50.877205
2023-03-19T09:27:21.554Z,50.877159
2023-03-19T09:28:21.555Z,50.877171
2023-03-19T09:29:21.545Z,50.877174
2023-03-19T09:30:21.506Z,50.877174
2023-03-19T09:31:21.624Z,50.877190
2023-03-19T09:32:21.524Z,50.877182
2023-03-19T09:33:21.539Z,50.877167
2023-03-19T09:34:21.483Z,50.877186
2023-03-19T09:35:21.481Z,50.877197
2023-03-19T09:36:21.490Z,50.877197
2023-03-19T09:37:21.507Z,50.877186
2023-03-19T09:38:21.436Z,50.877174
2023-03-19T09:39:22.446Z,50.877197
2023-03-19T09:40:21.576Z,50.877197
2023-03-19T09:41:21.409Z,50.877178
2023-03-19T09:42:21.436Z,50.877182
2023-03-19T09:43:21.390Z,50.877190
2023-03-19T09:44:21.379Z,50.877186
2023-03-19T09:45:21.405Z,50.877205
2023-03-19T09:46:22.834Z,50.877213
2023-03-19T09:47:22.349Z,50.877186
2023-03-19T09:48:21.354Z,50.877201
2023-03-19T09:49:21.360Z,50.877213
2023-03-19T09:50:21.406Z,50.877220
2023-03-19T09:51:21.395Z,50.877205
2023-03-19T09:52:21.351Z,50.877232
2023-03-19T09:53:21.324Z,50.877235
2023-03-19T09:54:21.318Z,50.877216
2023-03-19T09:55:21.277Z,50.877186
2023-03-19T09:56:21.271Z,50.877182
2023-03-19T09:57:21.273Z,50.877224
2023-03-19T09:58:21.279Z,50.877239
2023-03-19T09:59:21.265Z,50.877228
2023-03-19T10:00:21.414Z,50.877224
2023-03-19T10:01:21.282Z,50.877228
2023-03-19T10:02:21.207Z,50.877205
2023-03-19T10:03:21.209Z,50.877159
2023-03-19T10:04:21.230Z,50.877159
2023-03-19T10:05:22.229Z,50.877155
2023-03-19T10:06:21.180Z,50.877155
2023-03-19T10:07:21.152Z,50.877171
2023-03-19T10:08:21.254Z,50.877220
2023-03-19T10:09:21.161Z,50.877228
2023-03-19T10:10:21.184Z,50.877232
2023-03-19T10:11:21.164Z,50.877174
2023-03-19T10:12:21.113Z,50.877197
2023-03-19T10:13:21.103Z,50.877224
2023-03-19T10:14:21.113Z,50.877205
2023-03-19T10:15:21.094Z,50.877243
2023-03-19T10:16:21.137Z,50.877209
2023-03-19T10:17:21.052Z,50.877209
2023-03-19T10:18:21.061Z,50.877197
2023-03-19T10:19:22.225Z,50.877224
2023-03-19T10:20:21.047Z,50.877254
2023-03-19T10:21:21.023Z,50.877235
2023-03-19T10:22:21.047Z,50.877247
2023-03-19T10:23:21.013Z,50.877262
2023-03-19T10:24:21.040Z,50.877277
2023-03-19T10:25:20.996Z,50.877232
2023-03-19T10:26:20.993Z,50.877235
2023-03-19T10:27:20.978Z,50.877251
2023-03-19T10:28:20.963Z,50.877235
2023-03-19T10:29:20.954Z,50.877235
2023-03-19T10:30:20.954Z,50.877163
2023-03-19T10:31:20.948Z,50.877239
2023-03-19T10:32:20.943Z,50.877239
2023-03-19T10:33:20.932Z,50.877251
2023-03-19T10:34:20.932Z,50.877243
2023-03-19T10:35:20.921Z,50.877209
2023-03-19T10:36:20.900Z,50.877209
2023-03-19T10:37:20.886Z,50.877171
2023-03-19T10:38:20.875Z,50.877155
2023-03-19T10:39:20.894Z,50.877235
2023-03-19T10:40:20.851Z,50.877224
2023-03-19T10:41:20.840Z,50.877216
2023-03-19T10:42:20.816Z,50.877277
2023-03-19T10:43:20.858Z,50.877270
2023-03-19T10:44:20.834Z,50.877266
2023-03-19T10:45:20.851Z,50.877258
2023-03-19T10:46:20.800Z,50.877251
2023-03-19T10:47:20.768Z,50.877209
2023-03-19T10:48:20.761Z,50.877201
2023-03-19T10:49:20.772Z,50.877262
2023-03-19T10:50:20.779Z,50.877243
2023-03-19T10:51:20.731Z,50.877224
2023-03-19T10:52:20.733Z,50.877190
2023-03-19T10:53:20.701Z,50.877243
2023-03-19T10:54:20.714Z,50.877274
2023-03-19T10:55:20.711Z,50.877213
2023-03-19T10:56:21.680Z,50.877228
2023-03-19T10:57:20.700Z,50.877205
2023-03-19T10:58:20.676Z,50.877213
2023-03-19T10:59:20.677Z,50.877213
2023-03-19T11:00:20.654Z,50.877220
2023-03-19T11:01:20.703Z,50.877190
2023-03-19T11:02:20.685Z,50.877216
2023-03-19T11:03:20.665Z,50.877228
2023-03-19T11:04:20.606Z,50.877224
2023-03-19T11:05:20.590Z,50.877247
2023-03-19T11:06:20.606Z,50.877213
2023-03-19T11:07:21.595Z,50.877254
2023-03-19T11:08:34.928Z,50.877205
2023-03-19T11:09:22.560Z,50.877266
2023-03-19T11:10:20.565Z,50.877239
2023-03-19T11:11:20.534Z,50.877262
2023-03-19T11:12:20.526Z,50.877277
2023-03-19T11:13:20.522Z,50.877251
2023-03-19T11:14:20.540Z,50.877285
2023-03-19T11:15:20.506Z,50.877266
2023-03-19T11:16:20.543Z,50.877201
2023-03-19T11:17:20.492Z,50.877254
2023-03-19T11:18:20.495Z,50.877213
2023-03-19T11:19:20.481Z,50.877171
2023-03-19T11:20:20.440Z,50.877228
2023-03-19T11:21:20.455Z,50.877247
2023-03-19T11:22:21.176Z,50.877224
2023-03-19T11:23:21.458Z,50.877209
2023-03-19T11:24:20.410Z,50.877228